Time,TemperatureF,DewpointF,PressureIn,WindDirection,WindDirectionDegrees,WindSpeedMPH,WindSpeedGustMPH,Humidity,HourlyPrecipIn,Conditions,Clouds,dailyrainin,SoftwareType,DateUTC
2013-04-04 00:00:00,32.5,15.7,30.24,NW,315,0.0,18.3,49,0.00,,,0.00,VWS V14.01,2013-04-04 04:00:00,
2013-04-04 00:01:00,32.5,15.6,30.25,West,280,0.0,18.3,49,0.00,,,0.00,VWS V14.01,2013-04-04 04:01:00,
2013-04-04 00:02:00,32.5,15.7,30.24,West,280,0.0,18.3,50,0.00,,,0.00,VWS V14.01,2013-04-04 04:02:00,
2013-04-04 00:03:00,32.9,15.2,30.26,West,281,6.3,6.3,48,0.00,,,0.00,VWS V14.01,2013-04-04 04:03:00,
2013-04-04 00:04:00,32.8,15.0,30.26,WNW,285,0.0,6.3,48,0.00,,,0.00,VWS V14.01,2013-04-04 04:04:00,
2013-04-04 00:05:00,32.8,15.1,30.26,WNW,285,0.0,0.0,48,0.00,,,0.00,VWS V14.01,2013-04-04 04:05:00,
2013-04-04 00:06:00,32.5,15.9,30.24,North,359,0.0,18.3,50,0.00,,,0.00,VWS V14.01,2013-04-04 04:06:00,
2013-04-04 00:07:00,32.5,15.7,30.24,NW,319,5.6,18.3,50,0.00,,,0.00,VWS V14.01,2013-04-04 04:07:00,
2013-04-04 00:08:00,32.5,15.8,30.24,NW,314,0.0,18.3,50,0.00,,,0.00,VWS V14.01,2013-04-04 04:08:00,
2013-04-04 00:09:00,32.5,15.8,30.24,NNE,15,0.0,18.3,50,0.00,,,0.00,VWS V14.01,2013-04-04 04:09:00,
2013-04-04 00:10:00,32.5,15.7,30.24,NNE,15,0.0,18.3,50,0.00,,,0.00,VWS V14.01,2013-04-04 04:10:00,
2013-04-04 00:11:00,32.8,15.1,30.25,NNW,340,6.3,12.4,48,0.00,,,0.00,VWS V14.01,2013-04-04 04:11:00,
2013-04-04 00:12:00,32.4,15.8,30.24,NNE,20,0.0,18.3,50,0.00,,,0.00,VWS V14.01,2013-04-04 04:12:00,
2013-04-04 00:13:00,32.4,15.9,30.24,WNW,295,7.9,18.3,50,0.00,,,0.00,VWS V14.01,2013-04-04 04:13:00,
2013-04-04 00:14:00,32.4,15.7,30.24,NNW,338,0.0,18.3,50,0.00,,,0.00,VWS V14.01,2013-04-04 04:14:00,
2013-04-04 00:15:00,32.5,15.9,30.24,NNW,338,0.0,18.3,50,0.00,,,0.00,VWS V14.01,2013-04-04 04:15:00,
2013-04-04 00:16:00,32.8,15.3,30.25,North,359,0.0,14.0,48,0.00,,,0.00,VWS V14.01,2013-04-04 04:16:00,
2013-04-04 00:18:00,32.2,15.7,30.24,North,359,9.3,18.3,50,0.00,,,0.00,VWS V14.01,2013-04-04 04:18:00,
2013-04-04 00:19:00,32.3,15.8,30.24,NNW,345,5.3,18.3,50,0.00,,,0.00,VWS V14.01,2013-04-04 04:19:00,
2013-04-04 00:20:00,32.3,15.8,30.24,WNW,292,6.4,18.3,50,0.00,,,0.00,VWS V14.01,2013-04-04 04:20:00,
2013-04-04 00:21:00,32.4,15.9,30.24,North,359,0.0,18.3,50,0.00,,,0.00,VWS V14.01,2013-04-04 04:21:00,
2013-04-04 00:22:00,32.8,15.3,30.25,WNW,301,2.7,14.2,48,0.00,,,0.00,VWS V14.01,2013-04-04 04:22:00,
2013-04-04 00:23:00,32.4,16.0,30.24,North,359,0.0,18.3,50,0.00,,,0.00,VWS V14.01,2013-04-04 04:23:00,
2013-04-04 00:24:00,32.2,15.8,30.24,NNW,330,0.0,18.3,50,0.00,,,0.00,VWS V14.01,2013-04-04 04:24:00,
2013-04-04 00:25:00,32.3,15.9,30.24,NNW,330,0.0,18.3,50,0.00,,,0.00,VWS V14.01,2013-04-04 04:25:00,
2013-04-04 00:26:00,32.2,15.9,30.24,North,4,7.2,18.3,51,0.00,,,0.00,VWS V14.01,2013-04-04 04:26:00,
2013-04-04 00:27:00,32.5,15.3,30.25,NNW,339,8.8,14.2,49,0.00,,,0.00,VWS V14.01,2013-04-04 04:27:00,
2013-04-04 00:28:00,32.3,16.0,30.24,NE,45,4.9,18.3,51,0.00,,,0.00,VWS V14.01,2013-04-04 04:28:00,
2013-04-04 00:29:00,32.0,15.8,30.25,NW,322,9.8,18.3,51,0.00,,,0.00,VWS V14.01,2013-04-04 04:29:00,
2013-04-04 00:30:00,32.1,15.8,30.25,NNW,330,5.7,18.3,50,0.00,,,0.00,VWS V14.01,2013-04-04 04:30:00,
2013-04-04 00:31:00,32.2,15.9,30.25,WNW,294,0.0,18.3,51,0.00,,,0.00,VWS V14.01,2013-04-04 04:31:00,
2013-04-04 00:32:00,32.6,15.3,30.25,WNW,290,0.0,18.3,48,0.00,,,0.00,VWS V14.01,2013-04-04 04:32:00,
2013-04-04 00:33:00,32.3,16.2,30.25,NNW,342,0.0,18.3,51,0.00,,,0.00,VWS V14.01,2013-04-04 04:33:00,
2013-04-04 00:34:00,32.2,16.1,30.25,NNW,342,0.0,18.3,51,0.00,,,0.00,VWS V14.01,2013-04-04 04:34:00,
2013-04-04 00:35:00,32.2,16.2,30.25,NW,318,6.6,18.3,51,0.00,,,0.00,VWS V14.01,2013-04-04 04:35:00,
2013-04-04 00:36:00,32.2,16.2,30.25,WNW,301,3.4,18.3,51,0.00,,,0.00,VWS V14.01,2013-04-04 04:36:00,
2013-04-04 00:37:00,32.1,16.1,30.25,North,359,5.7,18.3,51,0.00,,,0.00,VWS V14.01,2013-04-04 04:37:00,
2013-04-04 00:38:00,32.5,15.1,30.25,NW,326,5.1,18.3,48,0.00,,,0.00,VWS V14.01,2013-04-04 04:38:00,
2013-04-04 00:39:00,32.2,16.2,30.25,WNW,301,2.8,18.3,51,0.00,,,0.00,VWS V14.01,2013-04-04 04:39:00,
2013-04-04 00:40:00,32.2,16.2,30.25,NNW,335,0.0,18.3,51,0.00,,,0.00,VWS V14.01,2013-04-04 04:40:00,
2013-04-04 00:42:00,32.1,16.2,30.25,NNE,22,4.7,18.3,51,0.00,,,0.00,VWS V14.01,2013-04-04 04:42:00,
2013-04-04 00:43:00,32.7,15.3,30.24,NW,309,0.0,18.3,48,0.00,,,0.00,VWS V14.01,2013-04-04 04:43:00,
2013-04-04 00:44:00,32.2,16.1,30.25,North,4,0.0,18.3,51,0.00,,,0.00,VWS V14.01,2013-04-04 04:44:00,
2013-04-04 00:45:00,32.1,16.2,30.25,North,4,0.0,18.3,51,0.00,,,0.00,VWS V14.01,2013-04-04 04:45:00,
2013-04-04 00:46:00,32.1,16.1,30.25,NNE,21,5.1,18.3,51,0.00,,,0.00,VWS V14.01,2013-04-04 04:46:00,
2013-04-04 00:47:00,32.1,16.2,30.24,North,1,0.0,18.3,51,0.00,,,0.00,VWS V14.01,2013-04-04 04:47:00,
2013-04-04 00:48:00,32.1,16.2,30.24,North,1,0.0,18.3,52,0.00,,,0.00,VWS V14.01,2013-04-04 04:48:00,
2013-04-04 00:49:00,32.6,15.4,30.25,NE,39,5.0,18.3,49,0.00,,,0.00,VWS V14.01,2013-04-04 04:49:00,
2013-04-04 00:50:00,32.0,16.1,30.24,NNW,330,0.0,18.3,51,0.00,,,0.00,VWS V14.01,2013-04-04 04:50:00,
2013-04-04 00:51:00,31.9,16.0,30.24,NNW,343,0.0,18.3,51,0.00,,,0.00,VWS V14.01,2013-04-04 04:51:00,
2013-04-04 00:52:00,32.0,16.1,30.24,NNW,343,0.0,18.3,51,0.00,,,0.00,VWS V14.01,2013-04-04 04:52:00,
2013-04-04 00:53:00,32.0,16.1,30.24,NNW,343,0.0,18.3,51,0.00,,,0.00,VWS V14.01,2013-04-04 04:53:00,
2013-04-04 00:54:00,32.5,15.5,30.24,NNE,14,4.6,18.3,49,0.00,,,0.00,VWS V14.01,2013-04-04 04:54:00,
2013-04-04 00:55:00,32.1,16.3,30.25,NNW,343,0.0,18.3,52,0.00,,,0.00,VWS V14.01,2013-04-04 04:55:00,
2013-04-04 00:56:00,32.0,16.1,30.25,NNW,343,0.0,18.3,51,0.00,,,0.00,VWS V14.01,2013-04-04 04:56:00,
2013-04-04 00:57:00,32.0,16.2,30.25,NNW,343,0.0,18.3,52,0.00,,,0.00,VWS V14.01,2013-04-04 04:57:00,
2013-04-04 00:58:00,32.0,16.2,30.25,NNW,343,0.0,18.3,52,0.00,,,0.00,VWS V14.01,2013-04-04 04:58:00,
2013-04-04 00:59:00,31.8,16.0,30.25,NNW,343,0.0,18.3,52,0.00,,,0.00,VWS V14.01,2013-04-04 04:59:00,
2013-04-04 01:00:00,31.9,16.1,30.24,NNW,343,0.0,18.3,52,0.00,,,0.00,VWS V14.01,2013-04-04 05:00:00,
2013-04-04 01:01:00,31.8,16.0,30.24,NNW,343,0.0,18.3,52,0.00,,,0.00,VWS V14.01,2013-04-04 05:01:00,
2013-04-04 01:02:00,31.9,16.1,30.24,NNW,343,0.0,18.3,52,0.00,,,0.00,VWS V14.01,2013-04-04 05:02:00,
2013-04-04 01:03:00,31.9,16.1,30.24,NNW,343,0.0,18.3,52,0.00,,,0.00,VWS V14.01,2013-04-04 05:03:00,
2013-04-04 01:05:00,31.8,16.2,30.24,NNW,343,0.0,18.3,52,0.00,,,0.00,VWS V14.01,2013-04-04 05:05:00,
2013-04-04 01:08:00,31.7,16.3,30.24,NNW,343,0.0,18.3,52,0.00,,,0.00,VWS V14.01,2013-04-04 05:08:00,
2013-04-04 01:09:00,31.6,16.2,30.24,NNW,343,0.0,18.3,52,0.00,,,0.00,VWS V14.01,2013-04-04 05:09:00,
2013-04-04 01:13:00,31.5,16.3,30.24,North,349,0.0,18.3,53,0.00,,,0.00,VWS V14.01,2013-04-04 05:13:00,
2013-04-04 01:17:00,31.4,16.2,30.24,NNW,342,0.0,18.3,53,0.00,,,0.00,VWS V14.01,2013-04-04 05:17:00,
2013-04-04 01:20:00,42.2,31.6,60.47,SSW,207,0.0,238.7,66,0.00,,,0.00,VWS V14.01,2013-04-04 05:20:00,
2013-04-04 01:25:00,31.2,16.5,30.24,NNE,13,0.0,18.3,54,0.00,,,0.00,VWS V14.01,2013-04-04 05:25:00,
2013-04-04 01:33:00,42.0,32.3,30.07,SSW,207,0.0,238.7,68,0.00,,,13.60,VWS V14.01,2013-04-04 05:33:00,
2013-04-04 01:40:00,31.4,16.8,30.24,NW,321,0.0,18.3,54,0.00,,,0.00,VWS V14.01,2013-04-04 05:40:00,
2013-04-04 01:53:00,31.3,17.4,30.23,NNW,329,0.0,18.3,56,0.00,,,0.00,VWS V14.01,2013-04-04 05:53:00,
2013-04-04 01:54:00,31.2,17.5,30.23,NNW,336,5.2,18.3,56,0.00,,,0.00,VWS V14.01,2013-04-04 05:54:00,
2013-04-04 01:56:00,31.2,17.2,30.23,NNW,342,0.0,18.3,56,0.00,,,0.00,VWS V14.01,2013-04-04 05:56:00,
2013-04-04 01:57:00,31.1,17.1,30.23,WSW,240,0.0,18.3,56,0.00,,,0.00,VWS V14.01,2013-04-04 05:57:00,
2013-04-04 02:00:00,31.2,17.3,30.23,NW,316,9.1,18.3,56,0.00,,,0.00,VWS V14.01,2013-04-04 06:00:00,
2013-04-04 02:02:00,31.8,16.1,30.24,NNW,343,0.0,18.3,52,0.00,,,0.00,VWS V14.01,2013-04-04 06:02:00,
2013-04-04 02:03:00,31.2,17.3,30.22,North,359,0.0,18.3,56,0.00,,,0.00,VWS V14.01,2013-04-04 06:03:00,
2013-04-04 02:05:00,31.2,17.3,30.23,WNW,300,0.0,18.3,56,0.00,,,0.00,VWS V14.01,2013-04-04 06:05:00,
2013-04-04 02:08:00,31.6,16.3,30.24,NNW,343,0.0,18.3,53,0.00,,,0.00,VWS V14.01,2013-04-04 06:08:00,
2013-04-04 02:13:00,31.4,16.3,30.24,West,276,0.0,18.3,53,0.00,,,0.00,VWS V14.01,2013-04-04 06:13:00,
2013-04-04 02:16:00,31.2,17.6,30.23,West,276,0.0,18.3,57,0.00,,,0.00,VWS V14.01,2013-04-04 06:16:00,
2013-04-04 02:18:00,31.4,16.5,30.23,NNE,13,0.0,18.3,54,0.00,,,0.00,VWS V14.01,2013-04-04 06:18:00,
2013-04-04 02:24:00,43.1,30.2,30.09,SSW,207,3.1,238.7,60,0.00,,,0.00,VWS V14.01,2013-04-04 06:24:00,
2013-04-04 02:25:00,31.3,16.7,30.24,NW,326,8.8,18.3,54,0.00,,,0.00,VWS V14.01,2013-04-04 06:25:00,
2013-04-04 02:27:00,41.7,32.9,30.06,SSW,207,0.0,238.7,71,0.00,,,0.00,VWS V14.01,2013-04-04 06:27:00,
2013-04-04 02:30:00,31.3,16.6,30.24,WNW,292,0.0,18.3,54,0.00,,,0.00,VWS V14.01,2013-04-04 06:30:00,
2013-04-04 02:35:00,31.4,17.0,30.24,NW,316,0.0,18.3,55,0.00,,,0.00,VWS V14.01,2013-04-04 06:35:00,
2013-04-04 02:36:00,31.1,17.8,30.25,NNE,13,0.0,18.3,57,0.00,,,0.00,VWS V14.01,2013-04-04 06:36:00,
2013-04-04 02:37:00,31.0,17.6,30.25,NNE,13,0.0,18.3,57,0.00,,,0.00,VWS V14.01,2013-04-04 06:37:00,
2013-04-04 02:40:00,31.4,17.0,30.23,NW,321,3.0,18.3,55,0.00,,,0.00,VWS V14.01,2013-04-04 06:40:00,
2013-04-04 02:46:00,31.3,17.2,30.23,NW,304,4.5,18.3,56,0.00,,,0.00,VWS V14.01,2013-04-04 06:46:00,
2013-04-04 02:53:00,31.1,17.2,30.23,NW,316,5.2,18.3,56,0.00,,,0.00,VWS V14.01,2013-04-04 06:53:00,
2013-04-04 03:00:00,31.1,17.2,30.22,NNW,332,5.5,18.3,56,0.00,,,0.00,VWS V14.01,2013-04-04 07:00:00,
2013-04-04 03:05:00,31.2,17.4,30.23,NW,311,0.0,18.3,56,0.00,,,0.00,VWS V14.01,2013-04-04 07:05:00,
2013-04-04 03:10:00,31.1,17.5,30.23,NW,318,9.2,18.3,57,0.00,,,0.00,VWS V14.01,2013-04-04 07:10:00,
2013-04-04 03:15:00,31.2,17.6,30.23,NW,315,0.0,18.3,57,0.00,,,0.00,VWS V14.01,2013-04-04 07:15:00,
2013-04-04 03:21:00,31.2,17.6,30.24,NW,315,0.0,18.3,57,0.00,,,0.00,VWS V14.01,2013-04-04 07:21:00,
2013-04-04 03:26:00,31.1,17.6,30.24,NNW,336,0.0,18.3,57,0.00,,,0.00,VWS V14.01,2013-04-04 07:26:00,
2013-04-04 03:32:00,31.1,17.7,30.25,NNE,13,5.2,18.3,57,0.00,,,0.00,VWS V14.01,2013-04-04 07:32:00,
2013-04-04 03:37:00,31.1,17.6,30.25,NNE,13,0.0,18.3,57,0.00,,,0.00,VWS V14.01,2013-04-04 07:37:00,
2013-04-04 03:42:00,31.1,17.8,30.26,SW,232,0.0,18.3,57,0.00,,,0.00,VWS V14.01,2013-04-04 07:42:00,
2013-04-04 03:48:00,31.1,17.9,30.26,West,278,3.2,18.3,58,0.00,,,0.00,VWS V14.01,2013-04-04 07:48:00,
2013-04-04 03:53:00,30.9,17.6,30.26,West,278,0.0,18.3,57,0.00,,,0.00,VWS V14.01,2013-04-04 07:53:00,
2013-04-04 03:59:00,31.0,17.9,30.26,SW,218,0.0,18.3,58,0.00,,,0.00,VWS V14.01,2013-04-04 07:59:00,
2013-04-04 04:04:00,31.1,18.2,30.26,SW,218,0.0,18.3,58,0.00,,,0.00,VWS V14.01,2013-04-04 08:04:00,
2013-04-04 04:09:00,31.1,18.4,30.27,SW,218,0.0,18.3,59,0.00,,,0.00,VWS V14.01,2013-04-04 08:09:00,
2013-04-04 04:14:00,31.2,18.2,30.27,SW,218,0.0,18.3,58,0.00,,,0.00,VWS V14.01,2013-04-04 08:14:00,
2013-04-04 04:19:00,31.1,18.0,30.27,SW,218,0.0,18.3,58,0.00,,,0.00,VWS V14.01,2013-04-04 08:19:00,
2013-04-04 04:25:00,31.1,18.0,30.27,SW,218,0.0,18.3,58,0.00,,,0.00,VWS V14.01,2013-04-04 08:25:00,
2013-04-04 04:30:00,31.1,17.9,30.27,SW,218,0.0,18.3,58,0.00,,,0.00,VWS V14.01,2013-04-04 08:30:00,
2013-04-04 04:35:00,31.0,17.8,30.28,SW,218,0.0,18.3,58,0.00,,,0.00,VWS V14.01,2013-04-04 08:35:00,
2013-04-04 04:41:00,30.9,17.9,30.28,SW,218,0.0,18.3,58,0.00,,,0.00,VWS V14.01,2013-04-04 08:41:00,
2013-04-04 04:46:00,30.9,18.2,30.28,SW,218,0.0,18.3,59,0.00,,,0.00,VWS V14.01,2013-04-04 08:46:00,
2013-04-04 04:51:00,30.6,19.2,30.28,SW,218,0.0,18.3,62,0.00,,,0.00,VWS V14.01,2013-04-04 08:51:00,
2013-04-04 04:56:00,30.6,19.4,30.28,SW,218,0.0,18.3,63,0.00,,,0.00,VWS V14.01,2013-04-04 08:56:00,
2013-04-04 05:02:00,30.6,19.5,30.29,SW,218,0.0,18.3,63,0.00,,,0.00,VWS V14.01,2013-04-04 09:02:00,
2013-04-04 05:07:00,30.4,18.9,30.29,SW,218,0.0,18.3,62,0.00,,,0.00,VWS V14.01,2013-04-04 09:07:00,
2013-04-04 05:13:00,30.4,19.1,30.29,SW,218,0.0,18.3,62,0.00,,,0.00,VWS V14.01,2013-04-04 09:13:00,
2013-04-04 05:18:00,30.4,18.6,30.29,SW,218,0.0,18.3,61,0.00,,,0.00,VWS V14.01,2013-04-04 09:18:00,
2013-04-04 05:23:00,30.3,18.7,30.29,SW,218,0.0,18.3,62,0.00,,,0.00,VWS V14.01,2013-04-04 09:23:00,
2013-04-04 05:29:00,30.2,19.0,30.30,SW,218,0.0,18.3,63,0.00,,,0.00,VWS V14.01,2013-04-04 09:29:00,
2013-04-04 05:34:00,30.3,20.1,30.30,SW,218,0.0,18.3,65,0.00,,,0.00,VWS V14.01,2013-04-04 09:34:00,
2013-04-04 05:39:00,30.0,19.7,30.30,SW,218,0.0,18.3,65,0.00,,,0.00,VWS V14.01,2013-04-04 09:39:00,
2013-04-04 05:44:00,30.1,19.8,30.31,SW,218,0.0,18.3,65,0.00,,,0.00,VWS V14.01,2013-04-04 09:44:00,
2013-04-04 05:50:00,30.0,19.5,30.31,SW,218,0.0,18.3,65,0.00,,,0.00,VWS V14.01,2013-04-04 09:50:00,
2013-04-04 05:55:00,30.0,19.6,30.31,SW,218,0.0,18.3,65,0.00,,,0.00,VWS V14.01,2013-04-04 09:55:00,
2013-04-04 06:00:00,29.9,20.0,30.31,SW,218,0.0,18.3,66,0.00,,,0.00,VWS V14.01,2013-04-04 10:00:00,
2013-04-04 06:05:00,29.5,20.4,30.31,SW,218,0.0,18.3,68,0.00,,,0.00,VWS V14.01,2013-04-04 10:05:00,
2013-04-04 06:10:00,29.2,19.8,30.31,SW,218,0.0,18.3,67,0.00,,,0.00,VWS V14.01,2013-04-04 10:10:00,
2013-04-04 06:16:00,29.1,19.6,30.31,SW,218,0.0,18.3,67,0.00,,,0.00,VWS V14.01,2013-04-04 10:16:00,
2013-04-04 06:21:00,29.0,19.5,30.32,SW,218,0.0,18.3,67,0.00,,,0.00,VWS V14.01,2013-04-04 10:21:00,
2013-04-04 06:26:00,28.9,19.3,30.32,SW,218,0.0,18.3,67,0.00,,,0.00,VWS V14.01,2013-04-04 10:26:00,
2013-04-04 06:32:00,28.8,19.7,30.32,SW,218,0.0,18.3,68,0.00,,,0.00,VWS V14.01,2013-04-04 10:32:00,
2013-04-04 06:37:00,28.7,19.6,30.32,SW,218,0.0,18.3,68,0.00,,,0.00,VWS V14.01,2013-04-04 10:37:00,
2013-04-04 06:42:00,29.0,20.0,30.33,SW,218,0.0,18.3,69,0.00,,,0.00,VWS V14.01,2013-04-04 10:42:00,
2013-04-04 06:48:00,29.2,20.2,30.33,West,277,0.0,18.3,69,0.00,,,0.00,VWS V14.01,2013-04-04 10:48:00,
2013-04-04 06:53:00,29.3,20.1,30.34,West,277,0.0,18.3,68,0.00,,,0.00,VWS V14.01,2013-04-04 10:53:00,
2013-04-04 06:58:00,29.6,20.8,30.35,West,281,0.0,18.3,69,0.00,,,0.00,VWS V14.01,2013-04-04 10:58:00,
2013-04-04 07:03:00,29.5,20.3,30.34,West,266,0.0,18.3,68,0.00,,,0.00,VWS V14.01,2013-04-04 11:03:00,
2013-04-04 07:09:00,29.6,20.2,30.34,West,278,0.0,18.3,68,0.00,,,0.00,VWS V14.01,2013-04-04 11:09:00,
2013-04-04 07:14:00,29.7,20.6,30.34,West,278,0.0,18.3,68,0.00,,,0.00,VWS V14.01,2013-04-04 11:14:00,
2013-04-04 07:19:00,29.8,20.0,30.35,West,278,0.0,18.3,66,0.00,,,0.00,VWS V14.01,2013-04-04 11:19:00,
2013-04-04 07:25:00,30.0,20.1,30.35,West,278,0.0,18.3,66,0.00,,,0.00,VWS V14.01,2013-04-04 11:25:00,
2013-04-04 07:30:00,30.1,20.1,30.35,West,278,0.0,18.3,66,0.00,,,0.00,VWS V14.01,2013-04-04 11:30:00,
2013-04-04 07:35:00,30.4,20.0,30.35,West,278,0.0,18.3,65,0.00,,,0.00,VWS V14.01,2013-04-04 11:35:00,
2013-04-04 07:40:00,30.5,20.0,30.35,West,278,0.0,18.3,65,0.00,,,0.00,VWS V14.01,2013-04-04 11:40:00,
2013-04-04 07:46:00,30.9,20.4,30.35,West,278,0.0,18.3,64,0.00,,,0.00,VWS V14.01,2013-04-04 11:46:00,
2013-04-04 07:51:00,31.0,20.5,30.36,West,278,0.0,18.3,65,0.00,,,0.00,VWS V14.01,2013-04-04 11:51:00,
2013-04-04 07:56:00,31.3,20.5,30.36,NW,308,0.0,18.3,64,0.00,,,0.00,VWS V14.01,2013-04-04 11:56:00,
2013-04-04 08:01:00,31.4,20.4,30.36,NW,309,0.0,18.3,63,0.00,,,0.00,VWS V14.01,2013-04-04 12:01:00,
2013-04-04 08:06:00,31.6,20.5,30.35,West,273,0.0,18.3,63,0.00,,,0.00,VWS V14.01,2013-04-04 12:06:00,
2013-04-04 08:12:00,31.7,20.5,30.35,West,273,0.0,18.3,63,0.00,,,0.00,VWS V14.01,2013-04-04 12:12:00,
2013-04-04 08:17:00,32.1,20.6,30.35,West,273,0.0,18.3,62,0.00,,,0.00,VWS V14.01,2013-04-04 12:17:00,
2013-04-04 08:22:00,32.2,20.3,30.35,West,273,0.0,18.3,61,0.00,,,0.00,VWS V14.01,2013-04-04 12:22:00,
2013-04-04 08:28:00,32.4,20.9,30.35,NW,314,0.0,18.3,62,0.00,,,0.00,VWS V14.01,2013-04-04 12:28:00,
2013-04-04 08:33:00,33.0,20.9,30.34,NW,314,0.0,18.3,61,0.00,,,0.00,VWS V14.01,2013-04-04 12:33:00,
2013-04-04 08:38:00,33.7,21.0,30.34,NW,314,0.0,18.3,59,0.00,,,0.00,VWS V14.01,2013-04-04 12:38:00,
2013-04-04 08:44:00,34.1,21.0,30.34,NW,314,0.0,18.3,58,0.00,,,0.00,VWS V14.01,2013-04-04 12:44:00,
2013-04-04 08:49:00,34.7,21.4,30.34,NW,314,0.0,18.3,58,0.00,,,0.00,VWS V14.01,2013-04-04 12:49:00,
2013-04-04 08:55:00,35.1,21.2,30.33,NW,314,0.0,18.3,57,0.00,,,0.00,VWS V14.01,2013-04-04 12:55:00,
2013-04-04 09:00:00,35.0,20.3,30.33,NW,314,0.0,18.3,55,0.00,,,0.00,VWS V14.01,2013-04-04 13:00:00,
2013-04-04 09:05:00,35.2,21.0,30.33,NW,314,0.0,18.3,56,0.00,,,0.00,VWS V14.01,2013-04-04 13:05:00,
2013-04-04 09:10:00,35.7,21.1,30.33,NW,314,0.0,18.3,55,0.00,,,0.00,VWS V14.01,2013-04-04 13:10:00,
2013-04-04 09:15:00,36.1,20.7,30.33,NW,314,0.0,18.3,53,0.00,,,0.00,VWS V14.01,2013-04-04 13:15:00,
2013-04-04 09:21:00,36.9,21.3,30.33,NW,314,0.0,18.3,53,0.00,,,0.00,VWS V14.01,2013-04-04 13:21:00,
2013-04-04 09:26:00,36.9,20.1,30.33,NW,314,0.0,18.3,50,0.00,,,0.00,VWS V14.01,2013-04-04 13:26:00,
2013-04-04 09:32:00,37.4,21.8,30.33,NW,314,0.0,18.3,53,0.00,,,0.00,VWS V14.01,2013-04-04 13:32:00,
2013-04-04 09:37:00,38.0,20.7,30.32,NW,314,0.0,18.3,49,0.00,,,0.00,VWS V14.01,2013-04-04 13:37:00,
2013-04-04 09:42:00,38.5,21.4,30.33,NW,314,0.0,18.3,50,0.00,,,0.00,VWS V14.01,2013-04-04 13:42:00,
2013-04-04 09:48:00,39.4,21.2,30.33,NW,314,0.0,18.3,48,0.00,,,0.00,VWS V14.01,2013-04-04 13:48:00,
2013-04-04 09:53:00,39.6,21.0,30.32,NW,314,0.0,18.3,47,0.00,,,0.00,VWS V14.01,2013-04-04 13:53:00,
2013-04-04 09:59:00,40.1,21.6,30.32,NW,314,0.0,18.3,47,0.00,,,0.00,VWS V14.01,2013-04-04 13:59:00,
2013-04-04 10:04:00,40.8,21.3,30.32,NW,314,0.0,18.3,45,0.00,,,0.00,VWS V14.01,2013-04-04 14:04:00,
2013-04-04 10:09:00,41.3,21.8,30.33,NW,314,0.0,18.3,46,0.00,,,0.00,VWS V14.01,2013-04-04 14:09:00,
2013-04-04 10:15:00,41.8,21.1,30.32,NW,314,0.0,18.3,43,0.00,,,0.00,VWS V14.01,2013-04-04 14:15:00,
2013-04-04 10:20:00,41.9,21.8,30.32,NW,314,0.0,18.3,44,0.00,,,0.00,VWS V14.01,2013-04-04 14:20:00,
2013-04-04 10:25:00,42.3,22.0,30.32,NW,314,0.0,18.3,44,0.00,,,0.00,VWS V14.01,2013-04-04 14:25:00,
2013-04-04 10:31:00,42.3,21.2,30.32,WSW,243,0.0,18.3,43,0.00,,,0.00,VWS V14.01,2013-04-04 14:31:00,
2013-04-04 10:33:00,42.6,37.6,30.09,SSW,207,0.0,238.7,82,0.00,,,0.00,VWS V14.01,2013-04-04 14:33:00,
2013-04-04 10:36:00,42.5,21.8,30.32,West,276,0.0,18.3,43,0.00,,,0.00,VWS V14.01,2013-04-04 14:36:00,
2013-04-04 10:41:00,42.7,21.0,30.32,West,276,0.0,18.3,42,0.00,,,0.00,VWS V14.01,2013-04-04 14:41:00,
2013-04-04 10:46:00,43.2,21.8,30.31,West,276,0.0,18.3,42,0.00,,,0.00,VWS V14.01,2013-04-04 14:46:00,
2013-04-04 10:52:00,44.0,22.5,30.31,West,276,0.0,18.3,42,0.00,,,0.00,VWS V14.01,2013-04-04 14:52:00,
2013-04-04 10:54:00,42.2,31.5,30.08,SSW,207,0.0,238.7,65,0.00,,,0.00,VWS V14.01,2013-04-04 14:54:00,
2013-04-04 10:57:00,44.7,21.5,30.31,West,276,0.0,18.3,39,0.00,,,0.00,VWS V14.01,2013-04-04 14:57:00,
2013-04-04 11:02:00,44.5,21.8,30.31,West,276,0.0,18.3,40,0.00,,,0.00,VWS V14.01,2013-04-04 15:02:00,
2013-04-04 11:07:00,44.7,21.6,30.31,West,276,0.0,18.3,40,0.00,,,0.00,VWS V14.01,2013-04-04 15:07:00,
2013-04-04 11:12:00,44.6,21.0,30.31,West,276,0.0,18.3,39,0.00,,,0.00,VWS V14.01,2013-04-04 15:12:00,
2013-04-04 11:17:00,44.5,21.0,30.30,West,276,0.0,18.3,39,0.00,,,0.00,VWS V14.01,2013-04-04 15:17:00,
2013-04-04 11:23:00,45.0,21.3,30.30,SSW,198,0.0,18.3,39,0.00,,,0.00,VWS V14.01,2013-04-04 15:23:00,
2013-04-04 11:28:00,45.7,21.1,30.30,SW,224,0.0,18.3,37,0.00,,,0.00,VWS V14.01,2013-04-04 15:28:00,
2013-04-04 11:31:00,42.4,21.2,30.08,SSW,207,0.0,238.7,42,0.00,,,6.43,VWS V14.01,2013-04-04 15:31:00,
2013-04-04 11:33:00,45.3,21.3,30.30,West,260,0.0,18.3,38,0.00,,,0.00,VWS V14.01,2013-04-04 15:33:00,
2013-04-04 11:39:00,45.4,22.1,30.30,South,176,2.6,18.3,39,0.00,,,0.00,VWS V14.01,2013-04-04 15:39:00,
2013-04-04 11:44:00,46.2,21.8,30.30,SE,142,0.0,18.3,38,0.00,,,0.00,VWS V14.01,2013-04-04 15:44:00,
2013-04-04 11:49:00,47.1,22.7,30.30,SE,142,0.0,18.3,38,0.00,,,0.00,VWS V14.01,2013-04-04 15:49:00,
2013-04-04 11:55:00,47.8,22.8,30.30,SE,142,0.0,18.3,37,0.00,,,0.00,VWS V14.01,2013-04-04 15:55:00,
2013-04-04 12:00:00,48.5,23.0,30.29,South,170,0.0,18.3,36,0.00,,,0.00,VWS V14.01,2013-04-04 16:00:00,
2013-04-04 12:05:00,48.5,22.1,30.29,SW,224,0.0,18.3,35,0.00,,,0.00,VWS V14.01,2013-04-04 16:05:00,
2013-04-04 12:10:00,48.9,22.1,30.29,SW,224,0.0,18.3,34,0.00,,,0.00,VWS V14.01,2013-04-04 16:10:00,
2013-04-04 12:16:00,49.1,21.7,30.28,WSW,242,0.0,18.3,34,0.00,,,0.00,VWS V14.01,2013-04-04 16:16:00,
2013-04-04 12:21:00,49.4,22.6,30.28,SW,218,0.0,18.3,35,0.00,,,0.00,VWS V14.01,2013-04-04 16:21:00,
2013-04-04 12:26:00,49.2,22.3,30.28,West,264,0.0,18.3,34,0.00,,,0.00,VWS V14.01,2013-04-04 16:26:00,
2013-04-04 12:31:00,49.3,21.8,30.27,West,264,0.0,18.3,34,0.00,,,0.00,VWS V14.01,2013-04-04 16:31:00,
2013-04-04 12:36:00,49.3,22.8,30.27,WSW,239,0.0,18.3,35,0.00,,,0.00,VWS V14.01,2013-04-04 16:36:00,
2013-04-04 12:42:00,49.6,22.5,30.27,SW,224,0.0,18.3,34,0.00,,,0.00,VWS V14.01,2013-04-04 16:42:00,
2013-04-04 12:47:00,50.2,22.6,30.26,SW,224,0.0,18.3,34,0.00,,,0.00,VWS V14.01,2013-04-04 16:47:00,
2013-04-04 12:52:00,50.6,22.4,30.26,SW,224,0.0,18.3,33,0.00,,,0.00,VWS V14.01,2013-04-04 16:52:00,
2013-04-04 12:57:00,51.1,21.3,30.26,SW,224,0.0,18.3,31,0.00,,,0.00,VWS V14.01,2013-04-04 16:57:00,
2013-04-04 13:03:00,51.6,22.1,30.26,WSW,245,0.0,18.3,31,0.00,,,0.00,VWS V14.01,2013-04-04 17:03:00,
2013-04-04 13:08:00,51.6,22.0,30.25,West,269,0.0,18.3,31,0.00,,,0.00,VWS V14.01,2013-04-04 17:08:00,
2013-04-04 13:13:00,52.1,22.7,30.25,West,269,0.0,18.3,31,0.00,,,0.00,VWS V14.01,2013-04-04 17:13:00,
2013-04-04 13:18:00,52.1,21.8,30.25,South,181,0.0,18.3,30,0.00,,,0.00,VWS V14.01,2013-04-04 17:18:00,
2013-04-04 13:20:00,42.4,31.2,30.08,SSW,207,0.0,238.7,64,0.00,,,0.00,VWS V14.01,2013-04-04 17:20:00,
2013-04-04 13:25:00,53.2,22.0,30.24,SSE,166,0.0,18.3,29,0.00,,,0.00,VWS V14.01,2013-04-04 17:25:00,
2013-04-04 13:30:00,53.9,21.6,30.24,SSW,204,0.0,18.3,28,0.00,,,0.00,VWS V14.01,2013-04-04 17:30:00,
2013-04-04 13:35:00,53.8,22.1,30.24,South,190,6.7,18.3,29,0.00,,,0.00,VWS V14.01,2013-04-04 17:35:00,
2013-04-04 13:41:00,54.6,23.2,30.24,SE,124,0.0,18.3,29,0.00,,,0.00,VWS V14.01,2013-04-04 17:41:00,
2013-04-04 13:46:00,54.8,21.7,30.24,West,273,0.0,18.3,27,0.00,,,0.00,VWS V14.01,2013-04-04 17:46:00,
2013-04-04 13:51:00,54.9,21.8,30.23,West,273,0.0,18.3,27,0.00,,,0.00,VWS V14.01,2013-04-04 17:51:00,
2013-04-04 13:56:00,55.4,22.8,30.22,SE,141,0.0,18.3,28,0.00,,,0.00,VWS V14.01,2013-04-04 17:56:00,
2013-04-04 14:02:00,56.7,22.9,30.22,SE,141,0.0,18.3,27,0.00,,,0.00,VWS V14.01,2013-04-04 18:02:00,
2013-04-04 14:07:00,57.4,23.5,30.22,SE,125,3.5,18.3,27,0.00,,,0.00,VWS V14.01,2013-04-04 18:07:00,
2013-04-04 14:12:00,58.1,23.0,30.22,SSE,166,0.0,18.3,26,0.00,,,0.00,VWS V14.01,2013-04-04 18:12:00,
2013-04-04 14:17:00,58.1,21.8,30.21,South,170,6.3,18.3,24,0.00,,,0.00,VWS V14.01,2013-04-04 18:17:00,
2013-04-04 14:22:00,57.4,20.8,30.21,SW,219,4.5,18.3,24,0.00,,,0.00,VWS V14.01,2013-04-04 18:22:00,
2013-04-04 14:28:00,57.3,21.8,30.21,SSW,211,0.0,18.3,25,0.00,,,0.00,VWS V14.01,2013-04-04 18:28:00,
2013-04-04 14:33:00,57.9,22.4,30.21,SSE,166,0.0,18.3,25,0.00,,,0.00,VWS V14.01,2013-04-04 18:33:00,
2013-04-04 14:40:00,58.3,21.9,30.20,SW,215,0.0,18.3,24,0.00,,,0.00,VWS V14.01,2013-04-04 18:40:00,
2013-04-04 14:45:00,58.4,20.4,30.20,SW,235,0.0,18.3,23,0.00,,,0.00,VWS V14.01,2013-04-04 18:45:00,
2013-04-04 14:50:00,58.1,20.4,30.19,SSW,194,4.8,18.3,23,0.00,,,0.00,VWS V14.01,2013-04-04 18:50:00,
2013-04-04 14:56:00,57.9,20.6,30.19,SSW,202,4.8,18.3,23,0.00,,,0.00,VWS V14.01,2013-04-04 18:56:00,
2013-04-04 15:01:00,58.4,22.3,30.18,SW,228,0.0,18.3,24,0.00,,,0.00,VWS V14.01,2013-04-04 19:01:00,
2013-04-04 15:06:00,59.2,22.0,30.18,SSW,195,0.0,18.3,24,0.00,,,0.00,VWS V14.01,2013-04-04 19:06:00,
2013-04-04 15:11:00,59.5,22.0,30.18,East,97,0.0,18.3,23,0.00,,,0.00,VWS V14.01,2013-04-04 19:11:00,
2013-04-04 15:17:00,59.1,21.3,30.18,SSW,201,7.2,18.3,23,0.00,,,0.00,VWS V14.01,2013-04-04 19:17:00,
2013-04-04 15:23:00,58.9,21.9,30.17,SSW,202,0.0,18.3,24,0.00,,,0.00,VWS V14.01,2013-04-04 19:23:00,
2013-04-04 15:28:00,58.2,21.2,30.17,WSW,246,0.0,18.3,24,0.00,,,0.00,VWS V14.01,2013-04-04 19:28:00,
2013-04-04 15:33:00,57.6,20.4,30.17,WSW,238,0.0,18.3,23,0.00,,,0.00,VWS V14.01,2013-04-04 19:33:00,
2013-04-04 15:38:00,57.8,22.8,30.16,WSW,240,5.9,18.3,26,0.00,,,0.00,VWS V14.01,2013-04-04 19:38:00,
2013-04-04 15:44:00,57.7,21.4,30.16,WSW,252,5.3,18.3,24,0.00,,,0.00,VWS V14.01,2013-04-04 19:44:00,
2013-04-04 15:50:00,58.8,23.5,30.16,SE,132,0.0,18.3,25,0.00,,,0.00,VWS V14.01,2013-04-04 19:50:00,
2013-04-04 15:55:00,59.0,21.8,30.15,WSW,240,0.0,18.3,24,0.00,,,0.00,VWS V14.01,2013-04-04 19:55:00,
2013-04-04 16:00:00,59.8,22.9,30.15,WSW,238,0.0,18.3,24,0.00,,,0.00,VWS V14.01,2013-04-04 20:00:00,
2013-04-04 16:06:00,60.6,23.2,30.15,SSW,212,0.0,18.3,24,0.00,,,0.00,VWS V14.01,2013-04-04 20:06:00,
2013-04-04 16:11:00,60.0,22.2,30.15,SSW,195,0.0,18.3,23,0.00,,,0.00,VWS V14.01,2013-04-04 20:11:00,
2013-04-04 16:16:00,60.3,22.0,30.15,SW,222,0.0,18.3,23,0.00,,,0.00,VWS V14.01,2013-04-04 20:16:00,
2013-04-04 16:21:00,60.5,21.3,30.14,SSW,212,0.0,18.3,22,0.00,,,0.00,VWS V14.01,2013-04-04 20:21:00,
2013-04-04 16:26:00,59.8,22.3,30.14,SW,224,5.2,18.3,23,0.00,,,0.00,VWS V14.01,2013-04-04 20:26:00,
2013-04-04 16:32:00,59.9,21.8,30.14,WSW,239,0.0,18.3,23,0.00,,,0.00,VWS V14.01,2013-04-04 20:32:00,
2013-04-04 16:37:00,59.7,22.1,30.14,WSW,252,0.0,18.3,23,0.00,,,0.00,VWS V14.01,2013-04-04 20:37:00,
2013-04-04 16:42:00,59.8,22.4,30.14,West,262,0.0,18.3,23,0.00,,,0.00,VWS V14.01,2013-04-04 20:42:00,
2013-04-04 16:47:00,60.3,23.8,30.13,SSW,207,0.0,18.3,24,0.00,,,0.00,VWS V14.01,2013-04-04 20:47:00,
2013-04-04 16:52:00,60.5,21.1,30.13,SW,225,5.7,18.3,22,0.00,,,0.00,VWS V14.01,2013-04-04 20:52:00,
2013-04-04 16:58:00,60.2,21.1,30.13,SSW,202,0.0,18.3,22,0.00,,,0.00,VWS V14.01,2013-04-04 20:58:00,
2013-04-04 17:03:00,59.4,22.9,30.13,West,274,0.0,18.3,24,0.00,,,0.00,VWS V14.01,2013-04-04 21:03:00,
2013-04-04 17:08:00,59.5,22.5,30.13,South,177,0.0,18.3,24,0.00,,,0.00,VWS V14.01,2013-04-04 21:08:00,
2013-04-04 17:13:00,59.2,22.8,30.13,SSW,198,0.0,18.3,24,0.00,,,0.00,VWS V14.01,2013-04-04 21:13:00,
2013-04-04 17:19:00,58.8,22.9,30.13,SSE,159,5.2,18.3,25,0.00,,,0.00,VWS V14.01,2013-04-04 21:19:00,
2013-04-04 17:24:00,58.3,23.1,30.12,West,260,4.3,18.3,26,0.00,,,0.00,VWS V14.01,2013-04-04 21:24:00,
2013-04-04 17:29:00,58.2,22.3,30.12,SW,217,6.5,18.3,25,0.00,,,0.00,VWS V14.01,2013-04-04 21:29:00,
2013-04-04 17:35:00,57.6,22.9,30.12,SSW,195,2.9,18.3,26,0.00,,,0.00,VWS V14.01,2013-04-04 21:35:00,
2013-04-04 17:40:00,57.6,23.5,30.12,SSW,204,0.0,18.3,27,0.00,,,0.00,VWS V14.01,2013-04-04 21:40:00,
2013-04-04 17:45:00,57.2,23.4,30.12,South,180,0.0,18.3,27,0.00,,,0.00,VWS V14.01,2013-04-04 21:45:00,
2013-04-04 17:50:00,56.9,22.9,30.12,SW,229,0.0,18.3,27,0.00,,,0.00,VWS V14.01,2013-04-04 21:50:00,
2013-04-04 17:55:00,56.3,23.3,30.11,South,187,0.0,18.3,28,0.00,,,0.00,VWS V14.01,2013-04-04 21:55:00,
2013-04-04 18:01:00,55.8,23.4,30.11,SSW,198,3.2,18.3,28,0.00,,,0.00,VWS V14.01,2013-04-04 22:01:00,
2013-04-04 18:06:00,55.6,24.0,30.12,SSW,198,0.0,18.3,29,0.00,,,0.00,VWS V14.01,2013-04-04 22:06:00,
2013-04-04 18:11:00,55.4,24.7,30.12,SSE,149,0.0,18.3,30,0.00,,,0.00,VWS V14.01,2013-04-04 22:11:00,
2013-04-04 18:17:00,54.9,25.8,30.12,South,191,5.0,18.3,32,0.00,,,0.00,VWS V14.01,2013-04-04 22:17:00,
2013-04-04 18:22:00,54.4,27.5,30.12,SW,222,3.5,18.3,35,0.00,,,0.00,VWS V14.01,2013-04-04 22:22:00,
2013-04-04 18:27:00,53.6,26.5,30.12,WSW,245,11.7,18.3,35,0.00,,,0.00,VWS V14.01,2013-04-04 22:27:00,
2013-04-04 18:32:00,53.0,26.6,30.13,SE,139,5.2,18.3,36,0.00,,,0.00,VWS V14.01,2013-04-04 22:32:00,
2013-04-04 18:37:00,52.6,26.6,30.13,SE,127,0.0,18.3,36,0.00,,,0.00,VWS V14.01,2013-04-04 22:37:00,
2013-04-04 18:43:00,52.1,26.6,30.13,SE,127,0.0,18.3,37,0.00,,,0.00,VWS V14.01,2013-04-04 22:43:00,
2013-04-04 18:48:00,51.5,27.1,30.13,SSW,211,0.0,18.3,38,0.00,,,0.00,VWS V14.01,2013-04-04 22:48:00,
2013-04-04 18:53:00,50.9,27.1,30.13,WNW,287,0.0,18.3,39,0.00,,,0.00,VWS V14.01,2013-04-04 22:53:00,
2013-04-04 18:58:00,50.7,27.3,30.13,South,184,3.4,18.3,40,0.00,,,0.00,VWS V14.01,2013-04-04 22:58:00,
2013-04-04 19:04:00,50.4,27.5,30.13,South,184,0.0,18.3,41,0.00,,,0.00,VWS V14.01,2013-04-04 23:04:00,
2013-04-04 19:09:00,50.1,27.8,30.13,South,181,0.0,18.3,42,0.00,,,0.00,VWS V14.01,2013-04-04 23:09:00,
2013-04-04 19:14:00,49.7,27.7,30.13,SE,129,0.0,18.3,42,0.00,,,0.00,VWS V14.01,2013-04-04 23:14:00,
2013-04-04 19:19:00,49.3,28.0,30.14,South,170,0.0,18.3,43,0.00,,,0.00,VWS V14.01,2013-04-04 23:19:00,
2013-04-04 19:25:00,48.9,28.0,30.14,SSE,159,0.0,18.3,44,0.00,,,0.00,VWS V14.01,2013-04-04 23:25:00,
2013-04-04 19:30:00,48.4,27.8,30.14,SSE,159,0.0,18.3,45,0.00,,,0.00,VWS V14.01,2013-04-04 23:30:00,
2013-04-04 19:35:00,48.1,28.4,30.14,SSE,159,0.0,18.3,46,0.00,,,0.00,VWS V14.01,2013-04-04 23:35:00,
2013-04-04 19:40:00,47.6,27.9,30.14,SSE,159,0.0,18.3,46,0.00,,,0.00,VWS V14.01,2013-04-04 23:40:00,
2013-04-04 19:45:00,47.4,27.9,30.14,SSE,159,0.0,18.3,46,0.00,,,0.00,VWS V14.01,2013-04-04 23:45:00,
2013-04-04 19:50:00,47.1,27.9,30.14,SSE,159,0.0,18.3,47,0.00,,,0.00,VWS V14.01,2013-04-04 23:50:00,
2013-04-04 19:56:00,47.0,27.8,30.14,SSE,159,0.0,18.3,47,0.00,,,0.00,VWS V14.01,2013-04-04 23:56:00,
2013-04-04 20:01:00,46.9,27.9,30.13,SSE,159,0.0,18.3,47,0.00,,,0.00,VWS V14.01,2013-04-05 00:01:00,
2013-04-04 20:06:00,46.6,27.9,30.13,SSE,159,0.0,18.3,48,0.00,,,0.00,VWS V14.01,2013-04-05 00:06:00,
2013-04-04 20:11:00,46.3,27.9,30.13,SSE,159,0.0,18.3,48,0.00,,,0.00,VWS V14.01,2013-04-05 00:11:00,
2013-04-04 20:17:00,46.1,27.9,30.13,SSE,159,0.0,18.3,49,0.00,,,0.00,VWS V14.01,2013-04-05 00:17:00,
2013-04-04 20:22:00,45.8,27.9,30.13,SSE,159,0.0,18.3,49,0.00,,,0.00,VWS V14.01,2013-04-05 00:22:00,
2013-04-04 20:27:00,45.4,27.7,30.13,SSE,159,0.0,18.3,50,0.00,,,0.00,VWS V14.01,2013-04-05 00:27:00,
2013-04-04 20:32:00,45.3,28.2,30.13,SSE,159,0.0,18.3,51,0.00,,,0.00,VWS V14.01,2013-04-05 00:32:00,
2013-04-04 20:37:00,45.2,28.0,30.12,SSE,159,0.0,18.3,51,0.00,,,0.00,VWS V14.01,2013-04-05 00:37:00,
2013-04-04 20:43:00,45.0,27.9,30.12,SSE,159,0.0,18.3,51,0.00,,,0.00,VWS V14.01,2013-04-05 00:43:00,
2013-04-04 20:48:00,44.9,28.3,30.11,SSE,159,0.0,18.3,52,0.00,,,0.00,VWS V14.01,2013-04-05 00:48:00,
2013-04-04 20:53:00,44.9,28.7,30.11,SSE,155,0.0,18.3,53,0.00,,,0.00,VWS V14.01,2013-04-05 00:53:00,
2013-04-04 20:58:00,44.8,28.4,30.12,SSE,155,0.0,18.3,52,0.00,,,0.00,VWS V14.01,2013-04-05 00:58:00,
2013-04-04 21:03:00,44.5,28.7,30.12,SSE,155,0.0,18.3,54,0.00,,,0.00,VWS V14.01,2013-04-05 01:03:00,
2013-04-04 21:09:00,44.4,28.5,30.11,SSE,155,0.0,18.3,53,0.00,,,0.00,VWS V14.01,2013-04-05 01:09:00,
2013-04-04 21:14:00,44.3,28.6,30.12,SSE,155,0.0,18.3,54,0.00,,,0.00,VWS V14.01,2013-04-05 01:14:00,
2013-04-04 21:19:00,44.3,28.6,30.11,SSE,155,0.0,18.3,54,0.00,,,0.00,VWS V14.01,2013-04-05 01:19:00,
2013-04-04 21:20:00,42.1,32.0,30.08,SSW,207,0.0,238.7,67,0.00,,,0.00,VWS V14.01,2013-04-05 01:20:00,
2013-04-04 21:24:00,44.2,28.8,30.11,SSE,155,0.0,18.3,54,0.00,,,0.00,VWS V14.01,2013-04-05 01:24:00,
2013-04-04 21:30:00,44.0,28.8,30.10,SSE,155,0.0,18.3,55,0.00,,,0.00,VWS V14.01,2013-04-05 01:30:00,
2013-04-04 21:33:00,46.1,-8.9,1.77,South,179,0.0,238.7,9,0.00,,,0.00,VWS V14.01,2013-04-05 01:33:00,
2013-04-04 21:34:00,43.1,30.2,30.09,South,179,0.0,238.7,60,99.99,,,0.00,VWS V14.01,2013-04-05 01:34:00,
2013-04-04 21:35:00,44.0,29.1,30.10,SSE,155,0.0,18.3,55,0.00,,,0.00,VWS V14.01,2013-04-05 01:35:00,
2013-04-04 21:36:00,43.1,30.3,30.09,SSW,207,0.0,238.7,60,0.00,,,0.00,VWS V14.01,2013-04-05 01:36:00,
2013-04-04 21:37:00,43.0,30.3,30.09,SSW,207,0.0,238.7,60,0.00,,,0.00,VWS V14.01,2013-04-05 01:37:00,
2013-04-04 21:39:00,42.9,30.1,30.09,SSW,207,0.0,238.7,60,0.00,,,0.00,VWS V14.01,2013-04-05 01:39:00,
2013-04-04 21:40:00,43.9,29.1,30.10,SSE,155,0.0,18.3,56,0.00,,,0.00,VWS V14.01,2013-04-05 01:40:00,
2013-04-04 21:42:00,42.9,30.3,30.09,SSW,207,0.0,238.7,61,0.00,,,0.00,VWS V14.01,2013-04-05 01:42:00,
2013-04-04 21:44:00,42.8,30.9,30.09,SSW,207,0.0,238.7,62,0.00,,,0.00,VWS V14.01,2013-04-05 01:44:00,
2013-04-04 21:45:00,43.9,29.1,30.10,SSE,155,0.0,18.3,56,0.00,,,0.00,VWS V14.01,2013-04-05 01:45:00,
2013-04-04 21:47:00,42.7,30.8,30.09,SSW,207,0.0,238.7,62,0.00,,,0.00,VWS V14.01,2013-04-05 01:47:00,
2013-04-04 21:49:00,42.7,30.9,30.09,SSW,207,0.0,238.7,63,0.00,,,0.00,VWS V14.01,2013-04-05 01:49:00,
2013-04-04 21:50:00,43.8,29.0,30.10,SSE,155,0.0,18.3,56,0.00,,,0.00,VWS V14.01,2013-04-05 01:50:00,
2013-04-04 21:52:00,42.7,31.0,30.08,SSW,207,0.0,238.7,63,0.00,,,0.00,VWS V14.01,2013-04-05 01:52:00,
2013-04-04 21:53:00,42.7,31.1,30.09,SSW,207,0.0,238.7,63,0.00,,,0.00,VWS V14.01,2013-04-05 01:53:00,
2013-04-04 21:54:00,42.6,31.0,30.09,SSW,207,0.0,238.7,63,0.00,,,0.00,VWS V14.01,2013-04-05 01:54:00,
2013-04-04 21:55:00,42.6,30.9,30.09,SSW,207,0.0,238.7,63,0.00,,,0.00,VWS V14.01,2013-04-05 01:55:00,
2013-04-04 21:57:00,43.7,29.2,30.10,SSE,155,0.0,18.3,56,0.00,,,0.00,VWS V14.01,2013-04-05 01:57:00,
2013-04-04 21:58:00,42.6,31.1,30.09,SSW,207,0.0,238.7,63,0.00,,,0.00,VWS V14.01,2013-04-05 01:58:00,
2013-04-04 21:59:00,42.5,31.0,30.09,SSW,207,0.0,238.7,64,0.00,,,0.00,VWS V14.01,2013-04-05 01:59:00,
2013-04-04 22:00:00,42.6,31.1,30.09,SSW,207,0.0,238.7,63,0.00,,,0.00,VWS V14.01,2013-04-05 02:00:00,
2013-04-04 22:01:00,42.5,31.0,30.09,SSW,207,0.0,238.7,64,0.00,,,0.00,VWS V14.01,2013-04-05 02:01:00,
2013-04-04 22:02:00,43.6,29.3,30.09,SSE,155,0.0,18.3,57,0.00,,,0.00,VWS V14.01,2013-04-05 02:02:00,
2013-04-04 22:03:00,42.5,31.3,30.09,SSW,207,0.0,238.7,64,0.00,,,0.00,VWS V14.01,2013-04-05 02:03:00,
2013-04-04 22:04:00,42.5,31.4,30.08,SSW,207,0.0,238.7,64,0.00,,,0.00,VWS V14.01,2013-04-05 02:04:00,
2013-04-04 22:05:00,42.5,0.0,36.40,SSW,207,0.0,238.7,0,0.00,,,0.00,VWS V14.01,2013-04-05 02:05:00,
2013-04-04 22:06:00,42.4,31.2,30.08,SSW,207,0.0,238.7,64,0.00,,,0.00,VWS V14.01,2013-04-05 02:06:00,
2013-04-04 22:07:00,43.5,29.4,30.09,SSE,155,0.0,18.3,57,0.00,,,0.00,VWS V14.01,2013-04-05 02:07:00,
2013-04-04 22:08:00,42.2,31.5,30.08,SSW,207,0.0,238.7,65,0.00,,,0.00,VWS V14.01,2013-04-05 02:08:00,
2013-04-04 22:11:00,42.4,31.5,30.08,SSW,207,0.0,238.7,65,0.00,,,0.00,VWS V14.01,2013-04-05 02:11:00,
2013-04-04 22:12:00,43.4,29.8,30.09,SSE,155,0.0,18.3,58,0.00,,,0.00,VWS V14.01,2013-04-05 02:12:00,
2013-04-04 22:13:00,42.3,31.4,30.08,SSW,207,0.0,238.7,65,0.00,,,0.00,VWS V14.01,2013-04-05 02:13:00,
2013-04-04 22:14:00,42.3,31.4,30.08,SSW,207,0.0,238.7,65,0.00,,,0.00,VWS V14.01,2013-04-05 02:14:00,
2013-04-04 22:15:00,42.3,31.5,30.08,SSW,207,0.0,238.7,65,0.00,,,0.00,VWS V14.01,2013-04-05 02:15:00,
2013-04-04 22:16:00,42.3,31.5,30.08,SSW,207,0.0,238.7,65,0.00,,,99.99,VWS V14.01,2013-04-05 02:16:00,
2013-04-04 22:18:00,43.4,29.9,30.09,SSE,155,0.0,18.3,59,0.00,,,0.00,VWS V14.01,2013-04-05 02:18:00,
2013-04-04 22:19:00,42.2,31.4,30.08,SSW,207,0.0,238.7,65,0.00,,,0.00,VWS V14.01,2013-04-05 02:19:00,
2013-04-04 22:20:00,42.2,31.4,30.08,SSW,207,0.0,238.7,65,0.00,,,0.00,VWS V14.01,2013-04-05 02:20:00,
2013-04-04 22:22:00,42.2,31.4,74.45,SSW,207,0.0,238.7,65,0.00,,,99.99,VWS V14.01,2013-04-05 02:22:00,
2013-04-04 22:23:00,43.3,30.0,30.09,SSE,155,0.0,18.3,59,0.00,,,0.00,VWS V14.01,2013-04-05 02:23:00,
2013-04-04 22:24:00,42.2,31.4,0.00,SSW,207,0.0,238.7,65,0.00,,,99.99,VWS V14.01,2013-04-05 02:24:00,
2013-04-04 22:25:00,42.2,31.4,30.08,SSW,207,0.0,238.7,65,0.00,,,0.00,VWS V14.01,2013-04-05 02:25:00,
2013-04-04 22:27:00,42.2,31.5,30.08,SSW,207,0.0,238.7,66,0.00,,,0.00,VWS V14.01,2013-04-05 02:27:00,
2013-04-04 22:28:00,43.2,30.2,30.09,South,179,0.0,18.3,60,0.00,,,0.00,VWS V14.01,2013-04-05 02:28:00,
2013-04-04 22:31:00,42.2,31.7,30.08,SSW,207,0.0,238.7,66,0.00,,,0.00,VWS V14.01,2013-04-05 02:31:00,
2013-04-04 22:32:00,42.2,31.8,30.08,SSW,207,0.0,238.7,66,0.00,,,0.00,VWS V14.01,2013-04-05 02:32:00,
2013-04-04 22:33:00,42.1,31.6,30.08,SSW,207,0.0,238.7,66,0.00,,,0.00,VWS V14.01,2013-04-05 02:33:00,
2013-04-04 22:37:00,148.8,99.9,0.00,North,0,0.0,238.7,67,0.00,,,0.01,VWS V14.01,2013-04-05 02:37:00,
2013-04-04 22:40:00,41.9,32.2,30.08,SSW,207,0.0,238.7,68,0.00,,,0.00,VWS V14.01,2013-04-05 02:40:00,
2013-04-04 22:42:00,43.0,30.3,30.09,SSW,207,0.0,238.7,60,0.00,,,0.00,VWS V14.01,2013-04-05 02:42:00,
2013-04-04 22:47:00,41.7,32.5,30.07,SSW,207,0.0,238.7,70,0.00,,,0.00,VWS V14.01,2013-04-05 02:47:00,
2013-04-04 22:48:00,41.7,32.4,30.07,SSW,207,0.0,238.7,69,0.00,,,0.00,VWS V14.01,2013-04-05 02:48:00,
2013-04-04 22:49:00,41.7,32.4,30.07,SSW,207,0.0,238.7,69,0.00,,,8.22,VWS V14.01,2013-04-05 02:49:00,
2013-04-04 22:50:00,41.7,32.6,30.06,SSW,207,0.0,238.7,70,0.00,,,1.79,VWS V14.01,2013-04-05 02:50:00,
2013-04-04 22:51:00,41.7,25.0,30.06,SSW,207,0.0,238.7,51,0.00,,,99.99,VWS V14.01,2013-04-05 02:51:00,
2013-04-04 22:54:00,41.7,33.0,30.06,SSW,207,0.0,238.7,71,99.99,,,0.00,VWS V14.01,2013-04-05 02:54:00,